Reggio Calabria Airport LICR

Flugplatz Daten

Name: Reggio Calabria Airport

Ident: LICR

Lat: 38,07120132

Long: 15,65159988

Platzhöhe: 96 ft

IataCode: REG

City: Reggio Calabria

Metar

2022/08/13 18:20
LICR 131820Z AUTO 01005KT 340V040 9999 NCD 28/20 Q1011

Taf

2022/08/13 18:00
TAF LICR 131700Z 1318/1418 34013KT 9999 FEW030
TEMPO 1402/1408 TSRA
Gewünschte Webcam nicht vorhanden? Dann fügen Sie eine hinzu. Sie wird dann so schnell wie möglich freigeschaltet
Url: Title: